sensor_id;sensor_type;location;lat;lon;timestamp;P1;durP1;ratioP1;P2;durP2;ratioP2
17670;SDS011;8954;48.694;8.940;2023-01-24T08:01:08;21.67;;;19.83;;
17670;SDS011;8954;48.694;8.940;2023-01-24T08:03:34;8.10;;;7.80;;
17670;SDS011;8954;48.694;8.940;2023-01-24T08:05:59;9.80;;;9.40;;
17670;SDS011;8954;48.694;8.940;2023-01-24T08:08:28;12.53;;;11.93;;
17670;SDS011;8954;48.694;8.940;2023-01-24T08:10:53;13.50;;;12.73;;
17670;SDS011;8954;48.694;8.940;2023-01-24T08:13:19;13.27;;;12.50;;
17670;SDS011;8954;48.694;8.940;2023-01-24T08:15:44;12.63;;;12.00;;
17670;SDS011;8954;48.694;8.940;2023-01-24T08:18:10;13.77;;;12.93;;
17670;SDS011;8954;48.694;8.940;2023-01-24T08:20:35;13.13;;;12.43;;
17670;SDS011;8954;48.694;8.940;2023-01-24T08:23:01;13.03;;;12.33;;
17670;SDS011;8954;48.694;8.940;2023-01-24T08:25:26;12.63;;;11.97;;
17670;SDS011;8954;48.694;8.940;2023-01-24T08:27:53;7.50;;;7.30;;
17670;SDS011;8954;48.694;8.940;2023-01-24T08:30:19;7.57;;;7.37;;
17670;SDS011;8954;48.694;8.940;2023-01-24T08:32:44;7.35;;;7.15;;
17670;SDS011;8954;48.694;8.940;2023-01-24T08:35:10;7.10;;;6.90;;
17670;SDS011;8954;48.694;8.940;2023-01-24T08:37:36;7.10;;;6.90;;
17670;SDS011;8954;48.694;8.940;2023-01-24T08:40:01;8.23;;;7.93;;
17670;SDS011;8954;48.694;8.940;2023-01-24T08:42:28;8.77;;;8.40;;
17670;SDS011;8954;48.694;8.940;2023-01-24T08:44:53;9.40;;;9.00;;
17670;SDS011;8954;48.694;8.940;2023-01-24T08:47:19;9.70;;;9.30;;
17670;SDS011;8954;48.694;8.940;2023-01-24T08:49:44;10.53;;;9.97;;
17670;SDS011;8954;48.694;8.940;2023-01-24T08:52:10;7.40;;;7.20;;
17670;SDS011;8954;48.694;8.940;2023-01-24T08:54:36;7.90;;;7.60;;
17670;SDS011;8954;48.694;8.940;2023-01-24T08:57:02;7.50;;;7.30;;
17670;SDS011;8954;48.694;8.940;2023-01-24T08:59:28;7.60;;;7.30;;
17670;SDS011;8954;48.694;8.940;2023-01-24T09:01:54;7.22;;;7.03;;
17670;SDS011;8954;48.694;8.940;2023-01-24T09:04:20;7.40;;;7.20;;
17670;SDS011;8954;48.694;8.940;2023-01-24T09:06:46;8.30;;;8.00;;
17670;SDS011;8954;48.694;8.940;2023-01-24T09:09:12;8.87;;;8.57;;
17670;SDS011;8954;48.694;8.940;2023-01-24T09:11:37;9.50;;;9.10;;
17670;SDS011;8954;48.694;8.940;2023-01-24T09:14:03;9.40;;;9.00;;
17670;SDS011;8954;48.694;8.940;2023-01-24T09:16:28;9.80;;;9.40;;
17670;SDS011;8954;48.694;8.940;2023-01-24T09:18:54;9.60;;;9.20;;
17670;SDS011;8954;48.694;8.940;2023-01-24T09:21:20;9.83;;;9.43;;
17670;SDS011;8954;48.694;8.940;2023-01-24T09:23:46;7.30;;;7.10;;
17670;SDS011;8954;48.694;8.940;2023-01-24T09:26:12;7.50;;;7.30;;
17670;SDS011;8954;48.694;8.940;2023-01-24T09:28:37;8.53;;;8.23;;
17670;SDS011;8954;48.694;8.940;2023-01-24T09:31:06;9.00;;;8.70;;
17670;SDS011;8954;48.694;8.940;2023-01-24T09:33:32;7.32;;;7.13;;
17670;SDS011;8954;48.694;8.940;2023-01-24T09:35:59;7.50;;;7.30;;
17670;SDS011;8954;48.694;8.940;2023-01-24T09:38:26;7.30;;;7.10;;
17670;SDS011;8954;48.694;8.940;2023-01-24T09:41:01;8.50;;;8.00;;
17670;SDS011;8954;48.694;8.940;2023-01-24T09:49:21;7.90;;;7.60;;
17670;SDS011;8954;48.694;8.940;2023-01-24T09:51:59;8.37;;;8.07;;
17670;SDS011;8954;48.694;8.940;2023-01-24T09:54:47;8.57;;;8.27;;
17670;SDS011;8954;48.694;8.940;2023-01-24T09:57:19;9.27;;;8.87;;
17670;SDS011;8954;48.694;8.940;2023-01-24T09:59:52;0.00;;;0.00;;
17670;SDS011;8954;48.694;8.940;2023-01-24T10:02:22;1.73;;;1.73;;
17670;SDS011;8954;48.694;8.940;2023-01-24T10:04:49;6.90;;;6.70;;
17670;SDS011;8954;48.694;8.940;2023-01-24T10:07:20;6.80;;;6.60;;
17670;SDS011;8954;48.694;8.940;2023-01-24T10:10:02;7.20;;;6.90;;
17670;SDS011;8954;48.694;8.940;2023-01-24T10:12:51;7.40;;;7.10;;
17670;SDS011;8954;48.694;8.940;2023-01-24T10:20:41;8.13;;;7.83;;
17670;SDS011;8954;48.694;8.940;2023-01-24T10:28:37;6.80;;;6.60;;
17670;SDS011;8954;48.694;8.940;2023-01-24T10:31:11;6.60;;;6.40;;
17670;SDS011;8954;48.694;8.940;2023-01-24T10:33:47;7.90;;;7.57;;
17670;SDS011;8954;48.694;8.940;2023-01-24T10:36:30;7.97;;;7.67;;
17670;SDS011;8954;48.694;8.940;2023-01-24T10:39:08;8.70;;;8.30;;
17670;SDS011;8954;48.694;8.940;2023-01-24T10:41:35;8.77;;;8.37;;
17670;SDS011;8954;48.694;8.940;2023-01-24T10:44:15;6.70;;;6.50;;
17670;SDS011;8954;48.694;8.940;2023-01-24T10:46:49;6.70;;;6.50;;
17670;SDS011;8954;48.694;8.940;2023-01-24T10:49:45;7.30;;;7.00;;
17670;SDS011;8954;48.694;8.940;2023-01-24T10:52:19;6.75;;;6.55;;
17670;SDS011;8954;48.694;8.940;2023-01-24T10:59:56;6.60;;;6.40;;
17670;SDS011;8954;48.694;8.940;2023-01-24T11:02:29;7.13;;;6.93;;
17670;SDS011;8954;48.694;8.940;2023-01-24T11:05:00;7.60;;;7.30;;
17670;SDS011;8954;48.694;8.940;2023-01-24T11:07:32;7.80;;;7.50;;
17670;SDS011;8954;48.694;8.940;2023-01-24T11:12:53;7.83;;;7.53;;
17670;SDS011;8954;48.694;8.940;2023-01-24T11:15:31;7.67;;;7.37;;
17670;SDS011;8954;48.694;8.940;2023-01-24T11:20:41;7.83;;;7.40;;
17670;SDS011;8954;48.694;8.940;2023-01-24T11:25:51;7.73;;;7.43;;
17670;SDS011;8954;48.694;8.940;2023-01-24T11:31:01;7.28;;;7.07;;
17670;SDS011;8954;48.694;8.940;2023-01-24T11:36:46;6.60;;;6.40;;
17670;SDS011;8954;48.694;8.940;2023-01-24T11:39:36;6.80;;;6.60;;
17670;SDS011;8954;48.694;8.940;2023-01-24T11:48:05;6.20;;;6.00;;
17670;SDS011;8954;48.694;8.940;2023-01-24T11:53:49;6.80;;;6.60;;
17670;SDS011;8954;48.694;8.940;2023-01-24T12:01:58;7.33;;;7.10;;
17670;SDS011;8954;48.694;8.940;2023-01-24T12:04:59;7.70;;;7.40;;
17670;SDS011;8954;48.694;8.940;2023-01-24T12:12:48;7.07;;;6.87;;
17670;SDS011;8954;48.694;8.940;2023-01-24T12:15:34;7.30;;;7.00;;
17670;SDS011;8954;48.694;8.940;2023-01-24T12:20:56;6.68;;;6.47;;
17670;SDS011;8954;48.694;8.940;2023-01-24T12:23:34;6.60;;;6.40;;
17670;SDS011;8954;48.694;8.940;2023-01-24T12:26:18;6.90;;;6.70;;
17670;SDS011;8954;48.694;8.940;2023-01-24T12:28:49;6.90;;;6.70;;
17670;SDS011;8954;48.694;8.940;2023-01-24T12:31:30;7.60;;;7.20;;
17670;SDS011;8954;48.694;8.940;2023-01-24T12:36:58;7.37;;;7.07;;
17670;SDS011;8954;48.694;8.940;2023-01-24T12:39:50;7.20;;;6.93;;
17670;SDS011;8954;48.694;8.940;2023-01-24T12:42:25;7.10;;;6.90;;
17670;SDS011;8954;48.694;8.940;2023-01-24T12:45:21;8.13;;;7.83;;
17670;SDS011;8954;48.694;8.940;2023-01-24T12:48:12;7.53;;;7.23;;
17670;SDS011;8954;48.694;8.940;2023-01-24T12:50:48;7.60;;;7.30;;
17670;SDS011;8954;48.694;8.940;2023-01-24T12:55:56;6.53;;;6.32;;
17670;SDS011;8954;48.694;8.940;2023-01-24T12:58:36;6.80;;;6.60;;
17670;SDS011;8954;48.694;8.940;2023-01-24T13:04:08;7.20;;;7.00;;
17670;SDS011;8954;48.694;8.940;2023-01-24T13:09:44;6.50;;;6.30;;
17670;SDS011;8954;48.694;8.940;2023-01-24T13:12:21;6.40;;;6.20;;
17670;SDS011;8954;48.694;8.940;2023-01-24T13:14:50;6.60;;;6.40;;
17670;SDS011;8954;48.694;8.940;2023-01-24T13:17:27;6.50;;;6.30;;
17670;SDS011;8954;48.694;8.940;2023-01-24T13:25:33;6.80;;;6.60;;
17670;SDS011;8954;48.694;8.940;2023-01-24T13:31:15;6.85;;;6.65;;
17670;SDS011;8954;48.694;8.940;2023-01-24T13:34:09;6.80;;;6.60;;
17670;SDS011;8954;48.694;8.940;2023-01-24T13:36:40;6.90;;;6.70;;
17670;SDS011;8954;48.694;8.940;2023-01-24T13:42:20;7.40;;;7.10;;
17670;SDS011;8954;48.694;8.940;2023-01-24T13:44:48;7.70;;;7.40;;
17670;SDS011;8954;48.694;8.940;2023-01-24T13:49:45;7.77;;;7.37;;
17670;SDS011;8954;48.694;8.940;2023-01-24T13:55:01;7.07;;;6.88;;
17670;SDS011;8954;48.694;8.940;2023-01-24T14:05:47;7.73;;;7.43;;
17670;SDS011;8954;48.694;8.940;2023-01-24T14:08:30;7.63;;;7.33;;
17670;SDS011;8954;48.694;8.940;2023-01-24T14:11:10;8.00;;;7.70;;
17670;SDS011;8954;48.694;8.940;2023-01-24T14:29:50;7.73;;;7.43;;
17670;SDS011;8954;48.694;8.940;2023-01-24T14:32:32;7.87;;;7.57;;
17670;SDS011;8954;48.694;8.940;2023-01-24T14:37:40;6.60;;;6.40;;
17670;SDS011;8954;48.694;8.940;2023-01-24T14:42:41;7.87;;;7.57;;
17670;SDS011;8954;48.694;8.940;2023-01-24T14:45:12;8.30;;;8.00;;
17670;SDS011;8954;48.694;8.940;2023-01-24T14:47:48;8.10;;;7.80;;
17670;SDS011;8954;48.694;8.940;2023-01-24T14:50:18;8.60;;;8.20;;
17670;SDS011;8954;48.694;8.940;2023-01-24T14:52:48;6.50;;;6.30;;
17670;SDS011;8954;48.694;8.940;2023-01-24T14:57:42;6.30;;;6.10;;
17670;SDS011;8954;48.694;8.940;2023-01-24T15:02:59;7.23;;;6.93;;
17670;SDS011;8954;48.694;8.940;2023-01-24T15:07:55;6.50;;;6.30;;
17670;SDS011;8954;48.694;8.940;2023-01-24T15:10:25;5.70;;;5.50;;
17670;SDS011;8954;48.694;8.940;2023-01-24T15:13:03;6.73;;;6.43;;
17670;SDS011;8954;48.694;8.940;2023-01-24T15:15:32;7.00;;;6.70;;
17670;SDS011;8954;48.694;8.940;2023-01-24T15:17:59;7.53;;;7.23;;
17670;SDS011;8954;48.694;8.940;2023-01-24T15:20:30;6.00;;;5.80;;
17670;SDS011;8954;48.694;8.940;2023-01-24T15:22:58;5.80;;;5.60;;
17670;SDS011;8954;48.694;8.940;2023-01-24T15:25:32;6.20;;;6.00;;
17670;SDS011;8954;48.694;8.940;2023-01-24T15:30:56;7.17;;;6.87;;
17670;SDS011;8954;48.694;8.940;2023-01-24T15:33:25;5.75;;;5.55;;
17670;SDS011;8954;48.694;8.940;2023-01-24T15:39:10;7.10;;;6.80;;
17670;SDS011;8954;48.694;8.940;2023-01-24T15:41:38;7.10;;;6.80;;
17670;SDS011;8954;48.694;8.940;2023-01-24T15:44:22;7.60;;;7.30;;
17670;SDS011;8954;48.694;8.940;2023-01-24T15:46:55;7.77;;;7.47;;
17670;SDS011;8954;48.694;8.940;2023-01-24T15:49:55;5.90;;;5.70;;
17670;SDS011;8954;48.694;8.940;2023-01-24T15:52:23;6.50;;;6.30;;
17670;SDS011;8954;48.694;8.940;2023-01-24T15:54:56;7.00;;;6.80;;
17670;SDS011;8954;48.694;8.940;2023-01-24T15:57:25;7.70;;;7.40;;
17670;SDS011;8954;48.694;8.940;2023-01-24T15:59:54;8.33;;;8.00;;
17670;SDS011;8954;48.694;8.940;2023-01-24T16:02:24;6.10;;;5.90;;
17670;SDS011;8954;48.694;8.940;2023-01-24T16:04:49;6.83;;;6.63;;
17670;SDS011;8954;48.694;8.940;2023-01-24T16:07:15;7.57;;;7.27;;
17670;SDS011;8954;48.694;8.940;2023-01-24T16:09:45;8.30;;;8.00;;
17670;SDS011;8954;48.694;8.940;2023-01-24T16:12:13;8.97;;;8.57;;
17670;SDS011;8954;48.694;8.940;2023-01-24T16:14:42;8.70;;;8.30;;
17670;SDS011;8954;48.694;8.940;2023-01-24T16:17:11;8.90;;;8.50;;
17670;SDS011;8954;48.694;8.940;2023-01-24T16:19:37;9.27;;;8.87;;
17670;SDS011;8954;48.694;8.940;2023-01-24T16:22:03;8.87;;;8.47;;
17670;SDS011;8954;48.694;8.940;2023-01-24T16:24:28;9.33;;;8.87;;
17670;SDS011;8954;48.694;8.940;2023-01-24T16:26:54;9.60;;;9.17;;
17670;SDS011;8954;48.694;8.940;2023-01-24T16:29:24;10.67;;;10.13;;
17670;SDS011;8954;48.694;8.940;2023-01-24T16:31:53;11.17;;;10.57;;
17670;SDS011;8954;48.694;8.940;2023-01-24T16:34:18;11.77;;;11.17;;
17670;SDS011;8954;48.694;8.940;2023-01-24T16:36:44;11.40;;;10.80;;
17670;SDS011;8954;48.694;8.940;2023-01-24T16:39:13;11.00;;;10.50;;
17670;SDS011;8954;48.694;8.940;2023-01-24T16:41:43;11.37;;;10.70;;
17670;SDS011;8954;48.694;8.940;2023-01-24T16:44:10;11.70;;;11.10;;
17670;SDS011;8954;48.694;8.940;2023-01-24T16:46:35;12.57;;;11.87;;
17670;SDS011;8954;48.694;8.940;2023-01-24T16:49:01;12.67;;;11.93;;
17670;SDS011;8954;48.694;8.940;2023-01-24T16:51:27;12.67;;;11.97;;
17670;SDS011;8954;48.694;8.940;2023-01-24T16:53:56;13.57;;;12.73;;
17670;SDS011;8954;48.694;8.940;2023-01-24T16:56:22;12.93;;;12.23;;
17670;SDS011;8954;48.694;8.940;2023-01-24T16:58:48;7.60;;;7.40;;
17670;SDS011;8954;48.694;8.940;2023-01-24T17:01:19;8.23;;;7.93;;
17670;SDS011;8954;48.694;8.940;2023-01-24T17:03:44;7.00;;;6.80;;
17670;SDS011;8954;48.694;8.940;2023-01-24T17:06:11;6.80;;;6.60;;
17670;SDS011;8954;48.694;8.940;2023-01-24T17:08:38;8.37;;;8.07;;
17670;SDS011;8954;48.694;8.940;2023-01-24T17:11:10;9.67;;;9.20;;
17670;SDS011;8954;48.694;8.940;2023-01-24T17:13:36;9.77;;;9.37;;
17670;SDS011;8954;48.694;8.940;2023-01-24T17:16:09;10.13;;;9.53;;
17670;SDS011;8954;48.694;8.940;2023-01-24T17:18:36;10.30;;;9.80;;
17670;SDS011;8954;48.694;8.940;2023-01-24T17:21:06;10.23;;;9.67;;
17670;SDS011;8954;48.694;8.940;2023-01-24T17:23:34;10.37;;;9.87;;
17670;SDS011;8954;48.694;8.940;2023-01-24T17:26:05;10.80;;;10.20;;
17670;SDS011;8954;48.694;8.940;2023-01-24T17:28:39;10.60;;;10.10;;
17670;SDS011;8954;48.694;8.940;2023-01-24T17:31:16;10.70;;;10.20;;
17670;SDS011;8954;48.694;8.940;2023-01-24T17:33:44;10.93;;;10.43;;
17670;SDS011;8954;48.694;8.940;2023-01-24T17:36:10;11.03;;;10.53;;
17670;SDS011;8954;48.694;8.940;2023-01-24T17:38:40;11.53;;;10.90;;
17670;SDS011;8954;48.694;8.940;2023-01-24T17:41:10;12.00;;;11.37;;
17670;SDS011;8954;48.694;8.940;2023-01-24T17:43:43;11.67;;;11.03;;
17670;SDS011;8954;48.694;8.940;2023-01-24T17:46:10;12.00;;;11.33;;
17670;SDS011;8954;48.694;8.940;2023-01-24T17:48:36;11.93;;;11.33;;
17670;SDS011;8954;48.694;8.940;2023-01-24T17:51:12;11.87;;;11.17;;
17670;SDS011;8954;48.694;8.940;2023-01-24T17:53:39;12.67;;;11.90;;
17670;SDS011;8954;48.694;8.940;2023-01-24T17:56:06;11.80;;;11.20;;
17670;SDS011;8954;48.694;8.940;2023-01-24T17:58:35;12.47;;;11.80;;
17670;SDS011;8954;48.694;8.940;2023-01-24T18:01:01;12.20;;;11.57;;
17670;SDS011;8954;48.694;8.940;2023-01-24T18:03:27;12.07;;;11.47;;
17670;SDS011;8954;48.694;8.940;2023-01-24T18:05:53;12.67;;;12.00;;
17670;SDS011;8954;48.694;8.940;2023-01-24T18:08:19;12.20;;;11.60;;
17670;SDS011;8954;48.694;8.940;2023-01-24T18:10:45;11.70;;;11.13;;
17670;SDS011;8954;48.694;8.940;2023-01-24T18:13:11;12.20;;;11.47;;
17670;SDS011;8954;48.694;8.940;2023-01-24T18:15:37;12.43;;;11.73;;
17670;SDS011;8954;48.694;8.940;2023-01-24T18:18:03;12.67;;;12.00;;
17670;SDS011;8954;48.694;8.940;2023-01-24T18:20:30;12.50;;;11.80;;
17670;SDS011;8954;48.694;8.940;2023-01-24T18:22:55;12.57;;;11.90;;
17670;SDS011;8954;48.694;8.940;2023-01-24T18:25:21;12.60;;;11.97;;
17670;SDS011;8954;48.694;8.940;2023-01-24T18:27:47;12.90;;;12.23;;
17670;SDS011;8954;48.694;8.940;2023-01-24T18:30:13;13.03;;;12.30;;
17670;SDS011;8954;48.694;8.940;2023-01-24T18:32:39;12.37;;;11.70;;
17670;SDS011;8954;48.694;8.940;2023-01-24T18:35:05;12.27;;;11.57;;
17670;SDS011;8954;48.694;8.940;2023-01-24T18:37:31;12.37;;;11.67;;
17670;SDS011;8954;48.694;8.940;2023-01-24T18:39:57;12.87;;;12.13;;
17670;SDS011;8954;48.694;8.940;2023-01-24T18:42:22;12.03;;;11.33;;
17670;SDS011;8954;48.694;8.940;2023-01-24T18:44:48;11.87;;;11.23;;
17670;SDS011;8954;48.694;8.940;2023-01-24T18:47:14;12.43;;;11.80;;
17670;SDS011;8954;48.694;8.940;2023-01-24T18:49:43;11.97;;;11.33;;
17670;SDS011;8954;48.694;8.940;2023-01-24T18:52:08;11.73;;;11.13;;
17670;SDS011;8954;48.694;8.940;2023-01-24T18:54:34;11.93;;;11.23;;
17670;SDS011;8954;48.694;8.940;2023-01-24T18:57:01;10.93;;;10.40;;
17670;SDS011;8954;48.694;8.940;2023-01-24T18:59:31;11.77;;;11.03;;
17670;SDS011;8954;48.694;8.940;2023-01-24T19:01:57;11.87;;;11.27;;
17670;SDS011;8954;48.694;8.940;2023-01-24T19:04:23;11.77;;;11.13;;
17670;SDS011;8954;48.694;8.940;2023-01-24T19:06:50;11.80;;;11.20;;
17670;SDS011;8954;48.694;8.940;2023-01-24T19:09:15;12.97;;;12.30;;
17670;SDS011;8954;48.694;8.940;2023-01-24T19:11:41;12.93;;;12.10;;
17670;SDS011;8954;48.694;8.940;2023-01-24T19:14:09;12.33;;;11.70;;
17670;SDS011;8954;48.694;8.940;2023-01-24T19:16:36;12.77;;;12.00;;
17670;SDS011;8954;48.694;8.940;2023-01-24T19:19:05;12.37;;;11.67;;
17670;SDS011;8954;48.694;8.940;2023-01-24T19:21:32;12.53;;;11.90;;
17670;SDS011;8954;48.694;8.940;2023-01-24T19:23:59;11.73;;;11.13;;
17670;SDS011;8954;48.694;8.940;2023-01-24T19:26:24;11.63;;;11.03;;
17670;SDS011;8954;48.694;8.940;2023-01-24T19:28:53;11.57;;;10.97;;
17670;SDS011;8954;48.694;8.940;2023-01-24T19:31:21;12.70;;;11.97;;
17670;SDS011;8954;48.694;8.940;2023-01-24T19:33:47;11.90;;;11.20;;
17670;SDS011;8954;48.694;8.940;2023-01-24T19:36:14;12.47;;;11.80;;
17670;SDS011;8954;48.694;8.940;2023-01-24T19:38:40;12.90;;;12.20;;
17670;SDS011;8954;48.694;8.940;2023-01-24T19:41:07;12.70;;;12.00;;
17670;SDS011;8954;48.694;8.940;2023-01-24T19:43:34;13.47;;;12.70;;
17670;SDS011;8954;48.694;8.940;2023-01-24T19:46:02;13.43;;;12.73;;
17670;SDS011;8954;48.694;8.940;2023-01-24T19:48:29;13.60;;;12.83;;
17670;SDS011;8954;48.694;8.940;2023-01-24T19:51:00;13.30;;;12.60;;
17670;SDS011;8954;48.694;8.940;2023-01-24T19:53:30;13.97;;;13.03;;
17670;SDS011;8954;48.694;8.940;2023-01-24T19:56:01;13.97;;;13.20;;
17670;SDS011;8954;48.694;8.940;2023-01-24T19:58:35;14.50;;;13.70;;
17670;SDS011;8954;48.694;8.940;2023-01-24T20:01:14;12.90;;;12.20;;
17670;SDS011;8954;48.694;8.940;2023-01-24T20:03:44;13.93;;;13.10;;
17670;SDS011;8954;48.694;8.940;2023-01-24T20:06:24;13.47;;;12.70;;
17670;SDS011;8954;48.694;8.940;2023-01-24T20:08:55;13.73;;;12.97;;
17670;SDS011;8954;48.694;8.940;2023-01-24T20:11:25;13.70;;;12.93;;
17670;SDS011;8954;48.694;8.940;2023-01-24T20:14:00;13.13;;;12.40;;
17670;SDS011;8954;48.694;8.940;2023-01-24T20:16:28;13.03;;;12.30;;
17670;SDS011;8954;48.694;8.940;2023-01-24T20:19:17;14.20;;;13.40;;
17670;SDS011;8954;48.694;8.940;2023-01-24T20:21:46;14.23;;;13.43;;
17670;SDS011;8954;48.694;8.940;2023-01-24T20:24:12;13.10;;;12.37;;
17670;SDS011;8954;48.694;8.940;2023-01-24T20:26:38;12.87;;;12.10;;
17670;SDS011;8954;48.694;8.940;2023-01-24T20:29:03;13.07;;;12.30;;
17670;SDS011;8954;48.694;8.940;2023-01-24T20:31:32;13.90;;;13.03;;
17670;SDS011;8954;48.694;8.940;2023-01-24T20:33:59;13.30;;;12.57;;
17670;SDS011;8954;48.694;8.940;2023-01-24T20:36:25;13.00;;;12.30;;
17670;SDS011;8954;48.694;8.940;2023-01-24T20:38:51;13.17;;;12.47;;
17670;SDS011;8954;48.694;8.940;2023-01-24T20:41:18;12.47;;;11.80;;
17670;SDS011;8954;48.694;8.940;2023-01-24T20:43:45;12.90;;;12.20;;
17670;SDS011;8954;48.694;8.940;2023-01-24T20:46:13;12.77;;;12.13;;
17670;SDS011;8954;48.694;8.940;2023-01-24T20:48:47;14.33;;;13.47;;
17670;SDS011;8954;48.694;8.940;2023-01-24T20:51:15;13.27;;;12.57;;
17670;SDS011;8954;48.694;8.940;2023-01-24T20:53:41;13.30;;;12.60;;
17670;SDS011;8954;48.694;8.940;2023-01-24T20:56:08;13.10;;;12.40;;
17670;SDS011;8954;48.694;8.940;2023-01-24T20:58:35;14.23;;;13.40;;
17670;SDS011;8954;48.694;8.940;2023-01-24T21:01:08;12.80;;;12.13;;
17670;SDS011;8954;48.694;8.940;2023-01-24T21:03:40;13.70;;;13.00;;
17670;SDS011;8954;48.694;8.940;2023-01-24T21:06:08;13.73;;;13.00;;
17670;SDS011;8954;48.694;8.940;2023-01-24T21:08:36;13.83;;;13.00;;
17670;SDS011;8954;48.694;8.940;2023-01-24T21:11:04;14.30;;;13.50;;
17670;SDS011;8954;48.694;8.940;2023-01-24T21:13:31;14.03;;;13.30;;
17670;SDS011;8954;48.694;8.940;2023-01-24T21:16:08;14.33;;;13.43;;
17670;SDS011;8954;48.694;8.940;2023-01-24T21:18:37;14.70;;;13.77;;
17670;SDS011;8954;48.694;8.940;2023-01-24T21:21:03;14.87;;;13.97;;
17670;SDS011;8954;48.694;8.940;2023-01-24T21:23:29;14.00;;;13.23;;
17670;SDS011;8954;48.694;8.940;2023-01-24T21:25:55;14.27;;;13.53;;
17670;SDS011;8954;48.694;8.940;2023-01-24T21:28:22;13.77;;;13.03;;
17670;SDS011;8954;48.694;8.940;2023-01-24T21:30:56;14.33;;;13.50;;
17670;SDS011;8954;48.694;8.940;2023-01-24T21:33:23;15.43;;;14.50;;
17670;SDS011;8954;48.694;8.940;2023-01-24T21:35:57;15.90;;;14.93;;
17670;SDS011;8954;48.694;8.940;2023-01-24T21:38:23;15.87;;;14.93;;
17670;SDS011;8954;48.694;8.940;2023-01-24T21:40:49;15.50;;;14.60;;
17670;SDS011;8954;48.694;8.940;2023-01-24T21:43:33;16.07;;;15.07;;
17670;SDS011;8954;48.694;8.940;2023-01-24T21:45:58;15.47;;;14.60;;
17670;SDS011;8954;48.694;8.940;2023-01-24T21:48:24;15.83;;;14.93;;
17670;SDS011;8954;48.694;8.940;2023-01-24T21:51:09;16.43;;;15.50;;
17670;SDS011;8954;48.694;8.940;2023-01-24T21:53:35;15.47;;;14.60;;
17670;SDS011;8954;48.694;8.940;2023-01-24T21:56:19;16.20;;;15.23;;
17670;SDS011;8954;48.694;8.940;2023-01-24T21:59:03;16.17;;;15.20;;
17670;SDS011;8954;48.694;8.940;2023-01-24T22:01:28;15.47;;;14.60;;
17670;SDS011;8954;48.694;8.940;2023-01-24T22:03:54;15.50;;;14.63;;
17670;SDS011;8954;48.694;8.940;2023-01-24T22:06:19;15.17;;;14.30;;
17670;SDS011;8954;48.694;8.940;2023-01-24T22:08:45;15.50;;;14.63;;
17670;SDS011;8954;48.694;8.940;2023-01-24T22:11:10;15.03;;;14.23;;
17670;SDS011;8954;48.694;8.940;2023-01-24T22:13:36;14.50;;;13.67;;
17670;SDS011;8954;48.694;8.940;2023-01-24T22:16:01;14.53;;;13.60;;
17670;SDS011;8954;48.694;8.940;2023-01-24T22:18:27;14.20;;;13.50;;
17670;SDS011;8954;48.694;8.940;2023-01-24T22:20:53;14.17;;;13.40;;
17670;SDS011;8954;48.694;8.940;2023-01-24T22:23:25;14.57;;;13.73;;
17670;SDS011;8954;48.694;8.940;2023-01-24T22:26:00;13.80;;;13.03;;
17670;SDS011;8954;48.694;8.940;2023-01-24T22:28:35;13.97;;;13.13;;
17670;SDS011;8954;48.694;8.940;2023-01-24T22:31:03;13.77;;;13.03;;
17670;SDS011;8954;48.694;8.940;2023-01-24T22:33:29;13.27;;;12.63;;
17670;SDS011;8954;48.694;8.940;2023-01-24T22:35:56;13.40;;;12.70;;
17670;SDS011;8954;48.694;8.940;2023-01-24T22:38:22;13.47;;;12.77;;
17670;SDS011;8954;48.694;8.940;2023-01-24T22:40:51;14.20;;;13.40;;
17670;SDS011;8954;48.694;8.940;2023-01-24T22:43:17;14.00;;;13.23;;
17670;SDS011;8954;48.694;8.940;2023-01-24T22:45:43;13.60;;;12.90;;
17670;SDS011;8954;48.694;8.940;2023-01-24T22:48:12;13.63;;;12.90;;
17670;SDS011;8954;48.694;8.940;2023-01-24T22:50:40;13.90;;;13.10;;
17670;SDS011;8954;48.694;8.940;2023-01-24T22:53:06;13.50;;;12.77;;
17670;SDS011;8954;48.694;8.940;2023-01-24T22:55:35;13.27;;;12.57;;
17670;SDS011;8954;48.694;8.940;2023-01-24T22:58:01;13.40;;;12.70;;
17670;SDS011;8954;48.694;8.940;2023-01-24T23:00:27;12.67;;;12.03;;
17670;SDS011;8954;48.694;8.940;2023-01-24T23:02:52;13.13;;;12.43;;
17670;SDS011;8954;48.694;8.940;2023-01-24T23:05:18;12.93;;;12.10;;
17670;SDS011;8954;48.694;8.940;2023-01-24T23:07:43;12.97;;;12.23;;
17670;SDS011;8954;48.694;8.940;2023-01-24T23:10:09;12.77;;;12.07;;
17670;SDS011;8954;48.694;8.940;2023-01-24T23:12:35;13.77;;;13.00;;
17670;SDS011;8954;48.694;8.940;2023-01-24T23:15:19;13.10;;;12.40;;
17670;SDS011;8954;48.694;8.940;2023-01-24T23:18:05;13.53;;;12.80;;
17670;SDS011;8954;48.694;8.940;2023-01-24T23:20:36;13.47;;;12.73;;
17670;SDS011;8954;48.694;8.940;2023-01-24T23:23:20;14.07;;;13.20;;
17670;SDS011;8954;48.694;8.940;2023-01-24T23:25:46;12.80;;;12.07;;
17670;SDS011;8954;48.694;8.940;2023-01-24T23:28:11;12.43;;;11.80;;
17670;SDS011;8954;48.694;8.940;2023-01-24T23:30:41;12.57;;;11.87;;
17670;SDS011;8954;48.694;8.940;2023-01-24T23:35:59;12.90;;;12.23;;
17670;SDS011;8954;48.694;8.940;2023-01-24T23:38:25;12.33;;;11.63;;
17670;SDS011;8954;48.694;8.940;2023-01-24T23:40:51;12.37;;;11.70;;
17670;SDS011;8954;48.694;8.940;2023-01-24T23:43:16;12.13;;;11.43;;
17670;SDS011;8954;48.694;8.940;2023-01-24T23:45:42;11.60;;;11.03;;
17670;SDS011;8954;48.694;8.940;2023-01-24T23:48:08;12.10;;;11.50;;
17670;SDS011;8954;48.694;8.940;2023-01-24T23:50:34;12.10;;;11.50;;
17670;SDS011;8954;48.694;8.940;2023-01-24T23:52:59;11.70;;;11.10;;
17670;SDS011;8954;48.694;8.940;2023-01-24T23:55:25;11.70;;;11.10;;
17670;SDS011;8954;48.694;8.940;2023-01-24T23:57:51;12.47;;;11.83;;
